ADDS METAR Data INFO
IDs: Format: Raw Decoded Include TAF

Data at: 1015 UTC 12 Dec 2017

KDET 120953Z 31014G23KT 5SM -SN BKN022 OVC029 M02/M06 A2969 RMK AO2 SNB44 SLP061 P0000 T10221061 $
KDET 120853Z 32011G17KT 9SM BKN023 BKN035 OVC065 M02/M05 A2967 RMK AO2 SNB09E44 SLP055 P0000 60000 I3000 T10171050 53014 $
KDET 120832Z 33012G19KT 4SM -SN FEW029 BKN036 OVC060 M02/M04 A2967 RMK AO2 SNB09 P0000 T10171044 $
KDET 120753Z 33009KT 7SM BKN017 OVC022 M01/M03 A2965 RMK AO2 SLP048 I1000 T10111033 $
KDET 120726Z 31011G15KT 7SM BKN015 OVC021 M01/M03 A2965 RMK AO2 T10061028 $
KDET 120653Z 32009KT 5SM BR OVC012 M01/M02 A2964 RMK AO2 SLP043 T10111022 $
KDET 120635Z 31008KT 5SM BR BKN014 BKN025 OVC044 M01/M02 A2964 RMK AO2 T10111022 $
KDET 120553Z 31004KT 4SM BR OVC041 M01/M02 A2963 RMK AO2 SNE15B25E34 SLP042 P0000 60008 T10111022 11006 21017 56023 $
KDET 120522Z 31004KT 4SM BR BKN036 OVC060 M01/M02 A2964 RMK AO2 SNE15 P0000 T10111017 $
KDET 120509Z 31003KT 2SM -SN BR FEW005 OVC030 M01/M02 A2965 RMK AO2 P0000 T10111017 $
KDET 120506Z 31003KT 1 3/4SM -SN BR FEW005 OVC025 M01/M02 A2965 RMK AO2 P0000 T10111017 $
KDET 120453Z 30003KT 1 1/4SM -SN BR OVC017 M01/M02 A2966 RMK AO2 SLP050 P0001 T10111017 410061056 $
KDET 120353Z 25003KT 1 1/2SM -SN BR SCT005 OVC019 M01/M02 A2968 RMK AO2 SLP057 P0001 T10061017 $
KDET 120301Z 22004KT 1 1/2SM -SN BR FEW005 OVC019 M01/M02 A2970 RMK AO2 P0000 T10111017 $
KDET 120253Z 22004KT 1 1/4SM -SN BR OVC015 M01/M02 A2970 RMK AO2 SLP066 P0002 60006 T10111017 58018 $
KDET 120246Z 22004KT 1 1/2SM -SN BR OVC015 M01/M02 A2971 RMK AO2 P0002 T10111017 $
KDET 120212Z 20004KT 1SM -SN BR VV013 M01/M02 A2972 RMK AO2 P0001 T10111017 $
KDET 120203Z 21004KT 1 1/4SM -SN BR OVC015 M01/M02 A2973 RMK AO2 P0000 T10111022 $
KDET 120153Z 21004KT 1 1/2SM -SN BR FEW010 OVC014 M01/M02 A2973 RMK AO2 SLP076 P0003 T10111022 $
KDET 120136Z 19003KT 1 1/4SM -SN BR OVC014 M01/M02 A2974 RMK AO2 P0002 T10111022 $
KDET 120125Z 18004KT 3/4SM -SN BR VV013 M02/M02 A2974 RMK AO2 P0002 T10171022 $
KDET 120100Z 19004KT 1 1/4SM -SN BR FEW007 OVC021 M02/M02 A2975 RMK AO2 P0000 T10171022 $
KDET 120053Z 18004KT 2SM -SN BR SCT007 OVC025 M02/M02 A2975 RMK AO2 SLP082 P0001 T10171022 $
KDET 120048Z 18006KT 2 1/2SM -SN BR SCT007 SCT013 OVC029 M02/M02 A2975 RMK AO2 P0001 $
KDET 120044Z 17005KT 3SM -SN BR SCT007 SCT013 OVC031 M02/M02 A2975 RMK AO2 P0001 T10171022 $
KDET 120037Z 17005KT 4SM -SN BR BKN006 BKN013 OVC033 M02/M02 A2975 RMK AO2 P0001 T10171022 $
KDET 120028Z 17005KT 3/4SM -SN BR BKN006 BKN013 OVC027 M02/M02 A2975 RMK AO2 P0001 T10171022 $
KDET 120024Z 17005KT 3/4SM -SN BR SCT005 OVC025 M02/M02 A2975 RMK AO2 P0001 T10171022 $
KDET 120005Z 17006KT 1 1/2SM -SN BR FEW008 OVC013 M02/M02 A2975 RMK AO2 P0001 T10171022
KDET 112353Z 16005KT 1SM -SN BR VV009 M02/M02 A2976 RMK AO2 SLP084 P0004 60005 I6001 T10171022 11017 21033 58015
KDET 112324Z 17005KT 3/4SM -SN BR VV009 M02/M03 A2977 RMK AO2 P0002 T10221028
KDET 112304Z 16008KT 1 1/4SM -SN BR BKN013 BKN048 OVC060 M02/M03 A2978 RMK AO2 P0000 T10171033
KDET 112259Z 17008KT 2SM -SN BR BKN015 BKN048 OVC060 M02/M04 A2978 RMK AO2 P0000 T10171039
KDET 112253Z 17008KT 5SM -SN BR SCT017 BKN048 OVC060 M02/M04 A2978 RMK AO2 SNB50 SLP094 P0000 T10171039
KDET 112248Z 17007KT 10SM FEW021 BKN050 OVC060 M02/M04 A2979 RMK AO2
KDET 112153Z 16008KT 10SM OVC020 M02/M04 A2980 RMK AO2 SLP099 T10171044
KDET 112109Z 16009KT 10SM OVC016 M02/M04 A2983 RMK AO2 T10221044
KDET 112053Z 16007KT 10SM OVC013 M02/M04 A2984 RMK AO2 SNE00 SLP112 P0000 60001 I1000 I3001 T10221039 56029
KDET 112002Z 18008KT 8SM OVC012 M02/M04 A2985 RMK AO2 SNE00 P0000 I1000 T10221039
KDET 111953Z 17008KT 4SM -SN BR BKN009 OVC015 M02/M03 A2985 RMK AO2 SNB50 CIG 007V012 SLP117 P0001 I1001 T10221033
KDET 111919Z 18007KT 3SM BR BKN009 OVC014 M02/M03 A2988 RMK AO2 CIG 007V012 I1001 T10221033
KDET 111912Z 17005KT 2 1/2SM BR OVC012 M02/M03 A2988 RMK AO2 I1001 T10221033
KDET 111853Z 15004KT 3SM BR OVC009 M03/M04 A2989 RMK AO2 SNE01B38E48 CIG 007V011 SLP129 P0000 T10281039
KDET 111832Z 15005KT 5SM BR OVC009 M03/M05 A2990 RMK AO2 SNE01 P0000 T10331050
KDET 111753Z 13004KT 3SM -SN BR OVC012 M03/M05 A2993 RMK AO2 SLP142 P0000 60002 T10331050 11033 21056 56025
KDET 111748Z 13004KT 2 1/2SM -SN BR OVC014 M03/M06 A2993 RMK AO2 P0000
KDET 111733Z 15004KT 1 1/2SM -SN BR OVC014 M04/M06 A2994 RMK AO2 P0000 T10391056
KDET 111653Z 14005KT 1 1/4SM -SN BR FEW009 BKN023 OVC036 M04/M06 A2997 RMK AO2 SLP157 P0002 T10441061
KDET 111634Z 16003KT 1SM -SN BR FEW009 OVC017 M04/M06 A2999 RMK AO2 P0002 T10391061
KDET 111629Z 14004KT 3/4SM -SN BR VV017 M04/M06 A2999 RMK AO2 P0002 T10441061
KDET 111618Z 00000KT 1/2SM -SN FZFG VV013 M04/M06 A3000 RMK AO2 P0001 T10441061
KDET 111553Z 11003KT 3/4SM -SN VV019 M04/M07 A3000 RMK AO2 SNB34 SLP168 P0000 T10441072
KDET 111539Z 08005KT 2 1/2SM -SN BKN026 OVC035 M04/M08 A3000 RMK AO2 SNB34 P0000 T10441083
KDET 111453Z 09004KT 10SM OVC035 M05/M09 A3002 RMK AO2 SLP174 60000 T10501089 58004
KDET 111353Z 10005KT 10SM OVC035 M06/M09 A3003 RMK AO2 SNB24E33 PRESFR SLP182 P0000 T10561094
KDET 111253Z 36004KT 10SM OVC035 M05/M09 A3006 RMK AO2 SLP187 T10501094
KDET 111153Z 04003KT 10SM OVC036 M05/M09 A3003 RMK AO2 SLP185 T10501094 11028 21056 50003
KDET 111053Z 02004KT 10SM OVC038 M05/M09 A3004 RMK AO2 SLP186 T10501094
KDET 110953Z 34005KT 10SM BKN033 BKN043 M04/M09 A3005 RMK AO2 SLP189 T10441089
KDET 110939Z 34007KT 10SM SCT025 BKN033 M04/M09 A3005 RMK AO2 T10441089
KDET 110853Z 34007KT 10SM SCT017 BKN024 OVC032 M03/M07 A3003 RMK AO2 SLP176 T10331072 50005
KDET 110850Z 34006KT 10SM FEW017 BKN028 OVC034 M03/M07 A3003 RMK AO2
KDET 110753Z 31004KT 10SM FEW022 BKN032 BKN041 M03/M07 A3001 RMK AO2 SLP170 T10281067
KDET 110749Z 32005KT 10SM FEW022 BKN032 BKN041 M03/M07 A3001 RMK AO2
KDET 110653Z 32005KT 10SM OVC021 M03/M07 A2999 RMK AO2 SLP165 T10281067
KDET 110630Z 32006KT 10SM BKN021 BKN045 M03/M07 A3000 RMK AO2 T10281067
KDET 110612Z 32007KT 10SM SCT021 BKN045 M03/M07 A3000 RMK AO2 T10281067
KDET 110553Z 32007KT 10SM BKN022 M03/M07 A3000 RMK AO2 SLP166 60000 T10281067 11022 21028 53012
KDET 110532Z 31010G19KT 10SM BKN021 OVC043 M02/M07 A2999 RMK AO2 T10221067
KDET 110521Z 32009KT 10SM SCT017 SCT034 OVC043 M02/M06 A2999 RMK AO2 T10221061
KDET 110453Z 32008KT 9SM BKN015 BKN023 OVC039 M02/M05 A2998 RMK AO2 SLP160 T10221050 410221044
KDET 110353Z 30006KT 10SM OVC015 M02/M05 A2996 RMK AO2 SNB0254E03 SLP155 P0000 T10221050
KDET 110253Z 29006KT 8SM OVC018 M02/M06 A2996 RMK AO2 SNB0155E04 SLP153 P0000 60000 T10221056 51009
KDET 110153Z 27009KT 9SM BKN022 OVC045 M02/M06 A2996 RMK AO2 SLP152 T10221061
KDET 110053Z 26009KT 10SM OVC021 M02/M07 A2995 RMK AO2 SLP149 T10221067
KDET 110032Z 25007KT 10SM SCT021 OVC029 M02/M07 A2994 RMK AO2 T10221067
KDET 102353Z 25008KT 10SM FEW025 OVC035 M03/M07 A2993 RMK AO2 SLP144 T10281072 11028 21039 51012
KDET 102300Z 23010KT 10SM OVC031 M03/M07 A2993 RMK AO2 T10281072
KDET 102253Z 24009KT 10SM OVC029 M03/M08 A2993 RMK AO2 SLP143 T10281078